createdAt,value
2019-05-30T00:02:50.361Z,3.23
2019-05-30T00:05:56.258Z,3.90
2019-05-30T00:09:01.143Z,3.20
2019-05-30T00:12:07.631Z,2.63
2019-05-30T00:15:12.465Z,4.00
2019-05-30T00:18:17.184Z,3.63
2019-05-30T00:21:21.989Z,4.57
2019-05-30T00:24:27.394Z,3.07
2019-05-30T00:27:32.145Z,2.93
2019-05-30T00:30:37.176Z,3.00
2019-05-30T00:33:42.215Z,4.00
2019-05-30T00:36:47.287Z,3.23
2019-05-30T00:39:52.132Z,4.20
2019-05-30T00:42:57.844Z,4.13
2019-05-30T00:46:02.703Z,3.57
2019-05-30T00:49:07.474Z,3.97
2019-05-30T00:52:12.526Z,4.40
2019-05-30T00:55:17.294Z,3.10
2019-05-30T00:58:22.143Z,4.03
2019-05-30T01:01:26.899Z,3.90
2019-05-30T01:04:31.670Z,3.30
2019-05-30T01:07:37.586Z,5.20
2019-05-30T01:10:42.412Z,4.70
2019-05-30T01:13:47.574Z,5.37
2019-05-30T01:16:52.621Z,4.20
2019-05-30T01:19:59.067Z,3.47
2019-05-30T01:23:05.264Z,3.70
2019-05-30T01:26:10.473Z,2.63
2019-05-30T01:29:15.196Z,4.07
2019-05-30T01:32:29.619Z,5.60
2019-05-30T01:35:34.438Z,3.40
2019-05-30T01:38:39.194Z,3.00
2019-05-30T01:41:44.329Z,3.30
2019-05-30T01:44:49.199Z,3.67
2019-05-30T01:47:53.921Z,5.47
2019-05-30T01:51:00.236Z,4.67
2019-05-30T01:54:06.582Z,3.10
2019-05-30T01:57:11.527Z,3.53
2019-05-30T02:00:20.992Z,3.60
2019-05-30T02:03:25.208Z,3.53
2019-05-30T02:06:29.934Z,3.97
2019-05-30T02:09:34.929Z,4.43
2019-05-30T02:12:40.497Z,3.33
2019-05-30T02:15:45.592Z,3.70
2019-05-30T02:18:50.701Z,7.37
2019-05-30T02:21:55.724Z,3.70
2019-05-30T02:25:00.470Z,3.43
2019-05-30T02:28:06.253Z,4.47
2019-05-30T02:31:12.300Z,4.60
2019-05-30T02:34:17.250Z,5.03
2019-05-30T02:37:22.011Z,3.47
2019-05-30T02:40:27.230Z,4.60
2019-05-30T02:43:31.991Z,3.57
2019-05-30T02:46:37.030Z,4.00
2019-05-30T02:49:41.819Z,3.87
2019-05-30T02:52:46.835Z,3.40
2019-05-30T02:55:51.592Z,4.10
2019-05-30T02:58:56.950Z,3.93
2019-05-30T03:02:05.910Z,4.37
2019-05-30T03:05:12.097Z,4.87
2019-05-30T03:08:15.600Z,5.17
2019-05-30T03:11:21.941Z,4.63
2019-05-30T03:14:26.834Z,6.30
2019-05-30T03:17:32.804Z,5.20
2019-05-30T03:20:37.977Z,6.07
2019-05-30T03:23:43.230Z,5.27
2019-05-30T03:26:48.012Z,6.07
2019-05-30T03:29:52.850Z,6.70
2019-05-30T03:33:06.998Z,8.50
2019-05-30T03:36:09.673Z,6.00
2019-05-30T03:39:13.125Z,6.27
2019-05-30T03:42:18.082Z,6.50
2019-05-30T03:45:25.393Z,6.57
2019-05-30T03:48:31.923Z,6.70
2019-05-30T03:51:38.989Z,6.50
2019-05-30T03:54:44.594Z,7.40
2019-05-30T03:57:55.215Z,8.33
2019-05-30T04:01:03.827Z,8.77
2019-05-30T04:04:16.784Z,7.63
2019-05-30T04:07:25.235Z,7.13
2019-05-30T04:10:34.310Z,7.13
2019-05-30T04:13:46.701Z,7.60
2019-05-30T04:16:51.735Z,8.63
2019-05-30T04:19:56.496Z,8.67
2019-05-30T04:23:01.289Z,7.90
2019-05-30T04:26:07.436Z,7.60
2019-05-30T04:29:14.254Z,10.73
2019-05-30T04:32:19.074Z,8.97
2019-05-30T04:35:24.183Z,9.40
2019-05-30T04:38:29.186Z,8.27
2019-05-30T04:41:34.242Z,8.37
2019-05-30T04:44:40.405Z,9.37
2019-05-30T04:47:45.411Z,8.13
2019-05-30T04:50:50.472Z,8.77
2019-05-30T04:53:55.244Z,8.40
2019-05-30T04:56:59.964Z,9.13
2019-05-30T05:00:05.857Z,9.40
2019-05-30T05:03:11.294Z,12.43
2019-05-30T05:06:17.869Z,11.27
2019-05-30T05:09:22.816Z,9.33
2019-05-30T05:12:29.535Z,11.63
2019-05-30T05:15:34.545Z,9.70
2019-05-30T05:18:39.355Z,8.33
2019-05-30T05:21:44.094Z,10.27
2019-05-30T05:24:48.825Z,9.23
2019-05-30T05:27:53.579Z,8.70
2019-05-30T05:30:58.337Z,9.23
2019-05-30T05:34:03.091Z,12.13
2019-05-30T05:37:07.842Z,8.50
2019-05-30T05:40:16.093Z,10.63
2019-05-30T05:43:20.811Z,10.03
2019-05-30T05:46:25.853Z,9.47
2019-05-30T05:49:30.599Z,7.97
2019-05-30T05:52:35.333Z,9.97
2019-05-30T05:55:40.383Z,8.43
2019-05-30T05:58:45.143Z,8.43
2019-05-30T06:01:50.013Z,8.17
2019-05-30T06:04:55.120Z,7.70
2019-05-30T06:08:00.740Z,7.40
2019-05-30T06:11:05.515Z,7.33
2019-05-30T06:14:10.567Z,8.43
2019-05-30T06:17:16.865Z,13.20
2019-05-30T06:20:23.219Z,6.77
2019-05-30T06:23:28.392Z,7.07
2019-05-30T06:26:33.154Z,6.63
2019-05-30T06:29:38.279Z,7.70
2019-05-30T06:32:43.012Z,7.20
2019-05-30T06:35:47.883Z,6.53
2019-05-30T06:38:52.752Z,6.93
2019-05-30T06:41:57.825Z,6.03
2019-05-30T06:45:02.555Z,10.20
2019-05-30T06:48:08.429Z,7.73
2019-05-30T06:51:14.656Z,5.93
2019-05-30T06:54:21.436Z,6.17
2019-05-30T06:57:27.274Z,6.63
2019-05-30T07:00:32.947Z,5.20
2019-05-30T07:03:37.873Z,4.90
2019-05-30T07:06:42.909Z,4.93
2019-05-30T07:09:48.537Z,5.17
2019-05-30T07:12:53.597Z,5.10
2019-05-30T07:15:58.699Z,4.50
2019-05-30T07:19:03.867Z,6.47
2019-05-30T07:22:08.621Z,5.27
2019-05-30T07:25:13.842Z,4.67
2019-05-30T07:28:19.125Z,3.93
2019-05-30T07:31:24.163Z,5.10
2019-05-30T07:34:30.150Z,3.77
2019-05-30T07:37:34.963Z,7.07
2019-05-30T07:40:40.176Z,5.63
2019-05-30T07:43:44.938Z,4.87
2019-05-30T07:46:49.729Z,4.43
2019-05-30T07:49:55.121Z,4.47
2019-05-30T07:52:59.939Z,4.23
2019-05-30T07:56:05.192Z,4.30
2019-05-30T07:59:09.989Z,5.43
2019-05-30T08:02:14.981Z,4.27
2019-05-30T08:05:24.514Z,4.00
2019-05-30T08:08:28.123Z,4.07
2019-05-30T08:11:33.294Z,3.87
2019-05-30T08:14:38.989Z,3.60
2019-05-30T08:17:44.578Z,3.43
2019-05-30T08:20:49.535Z,3.27
2019-05-30T08:23:54.262Z,4.43
2019-05-30T08:26:59.002Z,3.87
2019-05-30T08:30:06.444Z,5.60
2019-05-30T08:33:11.174Z,3.90
2019-05-30T08:36:16.335Z,3.83
2019-05-30T08:39:21.090Z,3.13
2019-05-30T08:42:28.001Z,3.07
2019-05-30T08:45:33.697Z,3.60
2019-05-30T08:48:38.826Z,5.40
2019-05-30T08:51:43.590Z,3.33
2019-05-30T08:54:48.646Z,4.40
2019-05-30T08:57:53.548Z,6.03
2019-05-30T09:00:58.383Z,4.33
2019-05-30T09:04:03.458Z,3.17
2019-05-30T09:07:08.196Z,4.87
2019-05-30T09:10:14.790Z,4.10
2019-05-30T09:13:19.792Z,5.33
2019-05-30T09:16:24.595Z,3.53
2019-05-30T09:19:29.565Z,3.23
2019-05-30T09:22:34.687Z,3.30
2019-05-30T09:25:40.010Z,2.63
2019-05-30T09:28:44.736Z,3.03
2019-05-30T09:31:50.050Z,4.53
2019-05-30T09:34:55.010Z,2.70
2019-05-30T09:37:59.750Z,2.63
2019-05-30T09:41:04.541Z,8.87
2019-05-30T09:44:09.432Z,2.27
2019-05-30T09:47:14.143Z,3.10
2019-05-30T09:50:19.306Z,2.93
2019-05-30T09:53:24.321Z,3.17
2019-05-30T09:56:29.057Z,2.20
2019-05-30T09:59:34.008Z,5.60
2019-05-30T10:02:39.328Z,3.60
2019-05-30T10:05:45.077Z,3.57
2019-05-30T10:08:51.184Z,3.13
2019-05-30T10:11:56.180Z,1.60
2019-05-30T10:15:00.928Z,5.03
2019-05-30T10:18:05.784Z,1.83
2019-05-30T10:21:11.040Z,1.93
2019-05-30T10:24:15.812Z,1.70
2019-05-30T10:27:20.791Z,1.40
2019-05-30T10:30:27.144Z,2.57
2019-05-30T10:33:32.281Z,3.63
2019-05-30T10:36:44.243Z,3.77
2019-05-30T10:39:45.554Z,2.23
2019-05-30T10:42:51.273Z,1.70
2019-05-30T10:45:57.535Z,1.50
2019-05-30T10:49:02.330Z,1.70
2019-05-30T10:52:07.523Z,1.63
2019-05-30T10:55:14.050Z,2.03
2019-05-30T10:58:19.094Z,1.80
2019-05-30T11:01:24.170Z,2.27
2019-05-30T11:04:29.028Z,2.00
2019-05-30T11:08:00.122Z,2.30
2019-05-30T11:10:56.837Z,1.90
2019-05-30T11:14:01.603Z,2.63
2019-05-30T11:17:06.709Z,4.00
2019-05-30T11:20:11.819Z,2.23
2019-05-30T11:23:16.673Z,1.40
2019-05-30T11:26:21.429Z,2.40
2019-05-30T11:29:26.473Z,5.43
2019-05-30T11:32:31.291Z,2.03
2019-05-30T11:35:36.256Z,3.57
2019-05-30T11:38:41.068Z,3.00
2019-05-30T11:41:46.274Z,2.90
2019-05-30T11:44:51.469Z,2.37
2019-05-30T11:47:57.939Z,3.03
2019-05-30T11:51:02.864Z,4.73
2019-05-30T11:54:07.768Z,3.23
2019-05-30T11:57:12.851Z,2.63
2019-05-30T12:00:18.367Z,3.17
2019-05-30T12:03:23.126Z,2.93
2019-05-30T12:06:28.183Z,2.93
2019-05-30T12:09:33.461Z,2.20
2019-05-30T12:12:38.577Z,1.70
2019-05-30T12:15:43.441Z,2.27
2019-05-30T12:18:48.191Z,2.47
2019-05-30T12:21:53.593Z,1.93
2019-05-30T12:24:58.452Z,3.53
2019-05-30T12:28:04.217Z,2.03
2019-05-30T12:31:09.581Z,2.50
2019-05-30T12:34:14.404Z,4.23
2019-05-30T12:37:19.504Z,4.30
2019-05-30T12:40:24.535Z,2.47
2019-05-30T12:43:29.303Z,3.00
2019-05-30T12:46:34.048Z,3.07
2019-05-30T12:49:38.888Z,3.27
2019-05-30T12:52:43.837Z,2.73
2019-05-30T12:55:48.632Z,2.00
2019-05-30T12:58:54.552Z,2.67
2019-05-30T13:01:59.337Z,1.93
2019-05-30T13:05:05.021Z,1.77
2019-05-30T13:08:20.581Z,2.67
2019-05-30T13:11:16.703Z,2.57
2019-05-30T13:14:21.550Z,2.07
2019-05-30T13:17:26.383Z,1.90
2019-05-30T13:20:31.744Z,2.27
2019-05-30T13:23:37.001Z,2.50
2019-05-30T13:26:46.569Z,2.77
2019-05-30T13:29:51.487Z,1.13
2019-05-30T13:32:56.583Z,1.73
2019-05-30T13:36:03.114Z,1.80
2019-05-30T13:39:08.368Z,1.40
2019-05-30T13:42:13.144Z,2.43
2019-05-30T13:45:18.538Z,2.43
2019-05-30T13:48:23.541Z,2.17
2019-05-30T13:51:28.359Z,2.47
2019-05-30T13:54:33.145Z,3.40
2019-05-30T13:57:38.006Z,3.77
2019-05-30T14:00:42.847Z,1.73
2019-05-30T14:03:49.300Z,1.20
2019-05-30T14:06:54.313Z,4.17
2019-05-30T14:10:00.262Z,1.80
2019-05-30T14:13:06.758Z,2.27
2019-05-30T14:16:11.522Z,2.00
2019-05-30T14:19:16.228Z,1.40
2019-05-30T14:22:21.090Z,1.37
2019-05-30T14:25:25.931Z,4.00
2019-05-30T14:28:33.241Z,1.50
2019-05-30T14:31:38.154Z,2.20
2019-05-30T14:34:42.954Z,2.57
2019-05-30T14:37:47.938Z,2.80
2019-05-30T14:40:56.438Z,1.20
2019-05-30T14:44:01.287Z,1.93
2019-05-30T14:47:06.453Z,1.53
2019-05-30T14:50:13.256Z,1.30
2019-05-30T14:53:18.503Z,1.40
2019-05-30T14:56:23.265Z,5.23
2019-05-30T14:59:28.423Z,2.10
2019-05-30T15:02:33.250Z,1.83
2019-05-30T15:05:39.253Z,1.60
2019-05-30T15:08:44.080Z,1.30
2019-05-30T15:11:50.602Z,1.57
2019-05-30T15:14:55.406Z,1.50
2019-05-30T15:18:00.430Z,2.53
2019-05-30T15:21:06.293Z,1.53
2019-05-30T15:24:12.827Z,2.63
2019-05-30T15:27:20.786Z,1.20
2019-05-30T15:30:26.977Z,3.50
2019-05-30T15:33:31.885Z,1.13
2019-05-30T15:36:36.653Z,2.13
2019-05-30T15:39:41.631Z,1.30
2019-05-30T15:42:46.686Z,1.03
2019-05-30T15:45:51.772Z,1.57
2019-05-30T15:48:56.651Z,2.47
2019-05-30T15:52:01.433Z,1.67
2019-05-30T15:55:06.921Z,1.77
2019-05-30T15:58:13.463Z,1.00
2019-05-30T16:01:18.325Z,2.53
2019-05-30T16:04:23.130Z,2.97
2019-05-30T16:07:28.228Z,1.37
2019-05-30T16:10:36.629Z,2.77
2019-05-30T16:13:39.752Z,1.20
2019-05-30T16:16:45.010Z,1.00
2019-05-30T16:19:49.874Z,1.70
2019-05-30T16:22:54.936Z,3.80
2019-05-30T16:25:59.760Z,1.70
2019-05-30T16:29:04.709Z,1.53
2019-05-30T16:32:09.897Z,1.30
2019-05-30T16:35:15.945Z,3.20
2019-05-30T16:38:22.164Z,1.20
2019-05-30T16:41:27.171Z,2.60
2019-05-30T16:44:32.160Z,2.43
2019-05-30T16:47:37.018Z,1.40
2019-05-30T16:50:41.748Z,1.20
2019-05-30T16:53:46.630Z,1.80
2019-05-30T16:56:51.499Z,1.43
2019-05-30T16:59:56.621Z,1.20
2019-05-30T17:03:01.385Z,1.40
2019-05-30T17:06:07.063Z,1.50
2019-05-30T17:09:11.860Z,2.47
2019-05-30T17:12:17.453Z,1.37
2019-05-30T17:15:22.416Z,1.97
2019-05-30T17:18:27.463Z,1.83
2019-05-30T17:21:32.430Z,4.53
2019-05-30T17:24:37.271Z,1.57
2019-05-30T17:27:42.111Z,2.53
2019-05-30T17:30:46.986Z,2.50
2019-05-30T17:33:51.914Z,1.27
2019-05-30T17:36:57.343Z,1.10
2019-05-30T17:40:02.164Z,2.07
2019-05-30T17:43:07.955Z,1.23
2019-05-30T17:46:12.833Z,1.97
2019-05-30T17:49:17.690Z,2.50
2019-05-30T17:52:23.692Z,1.53
2019-05-30T17:55:28.634Z,1.93
2019-05-30T17:58:33.860Z,1.07
2019-05-30T18:01:38.694Z,1.20
2019-05-30T18:04:43.489Z,1.33
2019-05-30T18:07:48.314Z,1.20
2019-05-30T18:10:54.235Z,2.10
2019-05-30T18:13:59.161Z,3.10
2019-05-30T18:17:03.938Z,1.50
2019-05-30T18:20:09.593Z,1.60
2019-05-30T18:23:14.688Z,2.03
2019-05-30T18:26:19.542Z,1.20
2019-05-30T18:29:24.258Z,2.30
2019-05-30T18:32:30.229Z,2.97
2019-05-30T18:35:35.313Z,1.10
2019-05-30T18:38:41.377Z,2.07
2019-05-30T18:41:46.174Z,7.03
2019-05-30T18:44:50.972Z,1.20
2019-05-30T18:47:56.726Z,2.30
2019-05-30T18:51:01.716Z,1.37
2019-05-30T18:54:06.429Z,2.13
2019-05-30T18:57:11.424Z,2.53
2019-05-30T19:00:17.713Z,3.67
2019-05-30T19:03:24.422Z,2.60
2019-05-30T19:06:30.039Z,1.73
2019-05-30T19:09:34.899Z,2.20
2019-05-30T19:12:40.103Z,2.83
2019-05-30T19:15:44.854Z,2.43
2019-05-30T19:18:49.865Z,2.40
2019-05-30T19:21:54.701Z,2.53
2019-05-30T19:24:59.490Z,2.10
2019-05-30T19:28:04.748Z,1.73
2019-05-30T19:31:09.567Z,2.87
2019-05-30T19:34:14.403Z,2.47
2019-05-30T19:37:19.460Z,2.87
2019-05-30T19:40:25.366Z,3.80
2019-05-30T19:43:31.652Z,1.70
2019-05-30T19:46:36.901Z,1.73
2019-05-30T19:49:42.021Z,2.33
2019-05-30T19:52:47.169Z,2.43
2019-05-30T19:55:51.943Z,1.97
2019-05-30T19:58:56.898Z,1.53
2019-05-30T20:02:01.729Z,2.80
2019-05-30T20:05:06.670Z,1.57
2019-05-30T20:08:11.722Z,1.90
2019-05-30T20:11:16.714Z,6.00
2019-05-30T20:14:21.556Z,2.67
2019-05-30T20:17:26.333Z,2.63
2019-05-30T20:20:49.423Z,2.30
2019-05-30T20:23:51.766Z,2.67
2019-05-30T20:26:44.590Z,4.77
2019-05-30T20:29:49.350Z,3.27
2019-05-30T20:32:54.118Z,3.37
2019-05-30T20:35:59.493Z,3.80
2019-05-30T20:39:05.780Z,2.93
2019-05-30T20:42:19.228Z,2.40
2019-05-30T20:45:17.533Z,2.37
2019-05-30T20:48:22.411Z,5.00
2019-05-30T20:51:27.281Z,3.23
2019-05-30T20:54:32.022Z,3.93
2019-05-30T20:57:36.864Z,2.03
2019-05-30T21:00:42.299Z,2.63
2019-05-30T21:03:47.582Z,2.73
2019-05-30T21:06:54.923Z,3.20
2019-05-30T21:10:00.822Z,2.90
2019-05-30T21:13:06.082Z,4.43
2019-05-30T21:16:12.923Z,2.83
2019-05-30T21:19:17.732Z,2.20
2019-05-30T21:22:22.528Z,2.93
2019-05-30T21:25:27.337Z,2.97
2019-05-30T21:28:32.127Z,3.80
2019-05-30T21:31:39.136Z,5.03
2019-05-30T21:34:45.177Z,3.97
2019-05-30T21:37:50.975Z,4.03
2019-05-30T21:40:56.074Z,4.17
2019-05-30T21:44:00.849Z,3.70
2019-05-30T21:47:05.695Z,2.63
2019-05-30T21:50:10.688Z,2.43
2019-05-30T21:53:15.905Z,2.47
2019-05-30T21:56:20.695Z,3.87
2019-05-30T21:59:25.661Z,2.70
2019-05-30T22:02:30.574Z,3.30
2019-05-30T22:05:35.443Z,3.40
2019-05-30T22:08:41.081Z,3.23
2019-05-30T22:11:46.029Z,4.23
2019-05-30T22:14:51.999Z,3.00
2019-05-30T22:17:57.907Z,3.97
2019-05-30T22:21:02.721Z,4.97
2019-05-30T22:24:07.669Z,4.10
2019-05-30T22:27:12.477Z,3.17
2019-05-30T22:30:18.168Z,3.40
2019-05-30T22:33:22.971Z,4.40
2019-05-30T22:36:27.801Z,3.50
2019-05-30T22:39:32.645Z,3.57
2019-05-30T22:42:37.761Z,3.10
2019-05-30T22:45:42.555Z,6.53
2019-05-30T22:48:48.403Z,5.87
2019-05-30T22:51:53.942Z,3.00
2019-05-30T22:54:58.776Z,3.27
2019-05-30T22:58:03.499Z,3.30
2019-05-30T23:01:08.316Z,4.23
2019-05-30T23:04:13.060Z,4.70
2019-05-30T23:07:18.622Z,3.47
2019-05-30T23:10:23.585Z,4.17
2019-05-30T23:13:40.043Z,4.07
2019-05-30T23:16:35.469Z,3.27
2019-05-30T23:19:40.231Z,4.10
2019-05-30T23:22:44.952Z,4.70
2019-05-30T23:25:51.145Z,2.67
2019-05-30T23:28:57.907Z,4.00
2019-05-30T23:32:03.046Z,4.60
2019-05-30T23:35:08.040Z,4.27
2019-05-30T23:38:12.782Z,2.83
2019-05-30T23:41:18.567Z,4.33
2019-05-30T23:44:23.311Z,2.60
2019-05-30T23:47:28.234Z,4.63
2019-05-30T23:50:33.085Z,2.57
2019-05-30T23:53:37.838Z,4.17
2019-05-30T23:56:42.659Z,2.93
2019-05-30T23:59:47.312Z,3.33
